Terminal Aerodrome Forecast
Issued by NWS Jackson, MS

Home | Current Version | Previous Version | Text Only | Print | Product List | Glossary On
Versions: 1 2 3 4 5 6 7 8 9 10 11 12 13 14 15 16 17 18
000
FTUS44 KMEG 290529
TAFTUP
TAF
KTUP 290529Z 2906/3006 18005KT P6SM BKN010
      TEMPO 2910/2914 3SM BR
     FM291400 26007KT P6SM BKN020
     FM291900 27007KT P6SM VCSH BKN035
      TEMPO 2920/2924 VRB10KT 6SM SHRA
     FM300100 22004KT P6SM VCSH SCT035 BKN250=

USA.gov is the U.S. government's official web portal to all federal, state and local government web resources and services.